Time;durP1;ratioP1;P1;durP2;ratioP2;P2;SDS_P1;SDS_P2;PMS_P1;PMS_P2;Temp;Humidity;BMP_temperature;BMP_pressure;BME280_temperature;BME280_humidity;BME280_pressure;Samples;Min_cycle;Max_cycle;Signal;HPM_P1;HPM_P2
2023/11/05 00:01:17;;;;;;;9.03;8.83;;;10.00;99.90;;;;;;5023836;28;20491;-69
2023/11/05 00:03:44;;;;;;;9.57;9.37;;;10.10;99.90;;;;;;5012193;28;20876;-70
2023/11/05 00:06:11;;;;;;;9.30;9.10;;;10.10;99.90;;;;;;5025878;28;20458;-72
2023/11/05 00:08:38;;;;;;;9.10;8.90;;;10.10;99.90;;;;;;5026371;28;20972;-71
2023/11/05 00:11:06;;;;;;;8.60;8.50;;;10.10;99.90;;;;;;5013685;28;20462;-69
2023/11/05 00:13:32;;;;;;;8.93;8.73;;;10.10;99.90;;;;;;5026590;28;20461;-69
2023/11/05 00:16:00;;;;;;;9.00;8.90;;;10.10;99.90;;;;;;5026751;28;20480;-69
2023/11/05 00:18:26;;;;;;;9.30;9.10;;;10.10;99.90;;;;;;5013001;28;20638;-69
2023/11/05 00:20:55;;;;;;;9.20;9.00;;;10.10;99.90;;;;;;5024239;28;20457;-70
2023/11/05 00:23:23;;;;;;;9.30;9.10;;;10.00;99.90;;;;;;5026799;28;20450;-73
2023/11/05 00:25:51;;;;;;;9.13;8.93;;;10.00;99.90;;;;;;5012580;28;20482;-72
2023/11/05 00:28:18;;;;;;;9.07;8.87;;;10.00;99.90;;;;;;5020208;28;20499;-69
2023/11/05 00:30:46;;;;;;;9.50;9.30;;;10.00;99.90;;;;;;5026527;28;20811;-69
2023/11/05 00:33:13;;;;;;;8.90;8.80;;;10.00;99.90;;;;;;5015476;28;20557;-69
2023/11/05 00:35:40;;;;;;;9.80;9.60;;;10.10;99.90;;;;;;5023925;28;20864;-71
2023/11/05 00:38:08;;;;;;;12.90;12.50;;;10.10;99.90;;;;;;5025887;28;20466;-69
2023/11/05 00:40:35;;;;;;;13.30;12.90;;;10.10;99.90;;;;;;5021195;28;20461;-71
2023/11/05 00:43:04;;;;;;;15.17;14.57;;;10.10;99.90;;;;;;5016397;28;20932;-69
2023/11/05 00:45:30;;;;;;;15.73;15.07;;;10.00;99.90;;;;;;5016392;28;20854;-69
2023/11/05 00:47:57;;;;;;;15.70;15.00;;;9.90;99.90;;;;;;5022834;28;20936;-69
2023/11/05 00:50:25;;;;;;;15.73;15.03;;;9.90;99.90;;;;;;5026022;28;20461;-70
2023/11/05 00:52:53;;;;;;;16.20;15.50;;;9.80;99.90;;;;;;5018598;28;20474;-70
2023/11/05 00:55:21;;;;;;;15.73;15.03;;;9.70;99.90;;;;;;5025674;28;20833;-70
2023/11/05 00:57:48;;;;;;;15.43;14.77;;;9.70;99.90;;;;;;5015911;28;20557;-70
2023/11/05 01:00:16;;;;;;;14.50;13.90;;;9.60;99.90;;;;;;5013141;28;20465;-72
2023/11/05 01:02:43;;;;;;;14.20;13.70;;;9.60;99.90;;;;;;5007478;28;20461;-70
2023/11/05 01:05:10;;;;;;;14.10;13.60;;;9.50;99.90;;;;;;5014638;28;20463;-70
2023/11/05 01:07:37;;;;;;;13.80;13.30;;;9.60;99.90;;;;;;5011779;28;20486;-70
2023/11/05 01:10:05;;;;;;;12.97;12.57;;;9.50;99.90;;;;;;5048885;27;20460;-70
2023/11/05 01:12:34;;;;;;;13.80;13.30;;;9.50;99.90;;;;;;5026269;28;20445;-70
2023/11/05 01:15:03;;;;;;;12.80;12.40;;;9.50;99.90;;;;;;5025851;28;20465;-70
2023/11/05 01:17:30;;;;;;;13.10;12.70;;;9.50;99.90;;;;;;5014794;28;20947;-71
2023/11/05 01:19:57;;;;;;;12.50;12.10;;;9.50;99.90;;;;;;5016629;28;20480;-72
2023/11/05 01:22:26;;;;;;;13.00;12.60;;;9.50;99.90;;;;;;5013782;28;20464;-71
2023/11/05 01:24:52;;;;;;;12.60;12.20;;;9.50;99.90;;;;;;5025449;28;20552;-71
2023/11/05 01:27:19;;;;;;;12.27;11.87;;;9.60;99.90;;;;;;5025837;28;20489;-69
2023/11/05 01:29:47;;;;;;;12.50;12.10;;;9.50;99.90;;;;;;5020565;28;20963;-71
2023/11/05 01:32:14;;;;;;;12.00;11.70;;;9.50;99.90;;;;;;5010709;28;20505;-71
2023/11/05 01:34:41;;;;;;;11.53;11.23;;;9.50;99.90;;;;;;5021494;28;20458;-71
2023/11/05 01:37:08;;;;;;;11.20;10.90;;;9.50;99.90;;;;;;5025540;28;20979;-71
2023/11/05 01:39:35;;;;;;;10.70;10.47;;;9.50;99.90;;;;;;5025811;28;20493;-71
2023/11/05 01:42:02;;;;;;;10.07;9.87;;;9.50;99.90;;;;;;5008653;28;20979;-70
2023/11/05 01:44:29;;;;;;;9.83;9.63;;;9.50;99.90;;;;;;5025615;28;20494;-72
2023/11/05 01:46:58;;;;;;;9.77;9.57;;;9.50;99.90;;;;;;5015872;28;20904;-70
2023/11/05 01:49:27;;;;;;;9.93;9.73;;;9.50;99.90;;;;;;5024668;28;20453;-71
2023/11/05 01:51:55;;;;;;;10.00;9.80;;;9.50;99.90;;;;;;5022468;28;20485;-71
2023/11/05 01:54:22;;;;;;;10.80;10.50;;;9.50;99.90;;;;;;5015922;28;20473;-72
2023/11/05 01:56:50;;;;;;;10.50;10.30;;;9.50;99.90;;;;;;5020354;28;20461;-73
2023/11/05 01:59:18;;;;;;;10.30;10.10;;;9.50;99.90;;;;;;5024780;28;20457;-71
2023/11/05 02:01:46;;;;;;;9.93;9.73;;;9.50;99.90;;;;;;5025771;28;20461;-72
2023/11/05 02:04:14;;;;;;;10.77;10.47;;;9.60;99.90;;;;;;5020961;28;20461;-73
2023/11/05 02:06:41;;;;;;;11.57;11.27;;;9.60;99.90;;;;;;5015403;28;20561;-70
2023/11/05 02:09:07;;;;;;;11.10;10.80;;;9.60;99.90;;;;;;5014456;28;20497;-71
2023/11/05 02:11:34;;;;;;;11.00;10.70;;;9.60;99.90;;;;;;5019397;28;20481;-72
2023/11/05 02:14:01;;;;;;;10.60;10.40;;;9.60;99.90;;;;;;5025339;28;20529;-73
2023/11/05 02:16:31;;;;;;;10.37;10.17;;;9.60;99.90;;;;;;5024997;28;20542;-73
2023/11/05 02:18:59;;;;;;;10.07;9.87;;;9.70;99.90;;;;;;5018989;28;20593;-72
2023/11/05 02:21:34;;;;;;;10.80;10.50;;;9.70;99.90;;;;;;5015628;28;20476;-72
2023/11/05 02:24:02;;;;;;;10.57;10.37;;;9.70;99.90;;;;;;5019726;28;20470;-72
2023/11/05 02:26:29;;;;;;;9.70;9.50;;;9.70;99.90;;;;;;5028514;28;20464;-72
2023/11/05 02:28:58;;;;;;;10.53;10.33;;;9.70;99.90;;;;;;5026037;28;20493;-73
2023/11/05 02:31:25;;;;;;;10.60;10.40;;;9.80;99.90;;;;;;5021220;28;20560;-73
2023/11/05 02:33:52;;;;;;;11.10;10.80;;;9.80;99.90;;;;;;5028399;28;20457;-72
2023/11/05 02:36:19;;;;;;;11.07;10.77;;;9.80;99.90;;;;;;5023342;28;20503;-72
2023/11/05 02:38:46;;;;;;;10.87;10.57;;;9.80;99.90;;;;;;5023193;28;20466;-73
2023/11/05 02:41:15;;;;;;;10.20;10.00;;;9.90;99.90;;;;;;5016057;28;20473;-72
2023/11/05 02:43:42;;;;;;;10.80;10.50;;;9.90;99.90;;;;;;5014591;28;20501;-72
2023/11/05 02:46:09;;;;;;;10.37;10.17;;;9.90;99.90;;;;;;5023418;28;20938;-72
2023/11/05 02:48:36;;;;;;;10.37;10.17;;;9.80;99.90;;;;;;5024916;28;20549;-72
2023/11/05 02:51:04;;;;;;;11.03;10.73;;;9.90;99.90;;;;;;5028572;28;20828;-72
2023/11/05 02:53:30;;;;;;;10.63;10.43;;;9.90;99.90;;;;;;5018597;28;20828;-72
2023/11/05 02:55:57;;;;;;;10.13;9.93;;;9.90;99.90;;;;;;5018030;28;20834;-72
2023/11/05 02:58:25;;;;;;;10.70;10.50;;;9.90;99.90;;;;;;5019820;28;20461;-72
2023/11/05 03:00:52;;;;;;;10.73;10.47;;;9.90;99.90;;;;;;5017144;28;20773;-72
2023/11/05 03:03:19;;;;;;;10.80;10.50;;;9.90;99.90;;;;;;5027901;28;20453;-72
2023/11/05 03:05:46;;;;;;;11.50;11.20;;;9.90;99.90;;;;;;5028101;28;20461;-71
2023/11/05 03:08:12;;;;;;;11.33;11.03;;;9.90;99.90;;;;;;5020801;28;20538;-72
2023/11/05 03:10:40;;;;;;;11.20;10.90;;;9.90;99.90;;;;;;5054569;27;20461;-72
2023/11/05 03:13:07;;;;;;;11.10;10.80;;;9.90;99.90;;;;;;5017457;28;20453;-70
2023/11/05 03:15:35;;;;;;;11.43;11.13;;;9.90;99.90;;;;;;5020482;28;20490;-70
2023/11/05 03:18:02;;;;;;;11.40;11.10;;;9.90;99.90;;;;;;5023499;28;20457;-72
2023/11/05 03:20:29;;;;;;;11.13;10.83;;;9.90;99.90;;;;;;5023160;28;20465;-71
2023/11/05 03:22:57;;;;;;;11.70;11.40;;;9.90;99.90;;;;;;5027596;28;20468;-72
2023/11/05 03:25:24;;;;;;;11.60;11.30;;;9.90;99.90;;;;;;5027590;28;20472;-72
2023/11/05 03:27:51;;;;;;;11.63;11.33;;;9.90;99.90;;;;;;5027855;28;20508;-70
2023/11/05 03:30:18;;;;;;;11.40;11.10;;;10.00;99.90;;;;;;5014630;28;20480;-72
2023/11/05 03:32:46;;;;;;;11.90;11.60;;;9.90;99.90;;;;;;5021781;28;20454;-71
2023/11/05 03:35:13;;;;;;;11.20;10.90;;;9.90;99.90;;;;;;5012823;28;20466;-72
2023/11/05 03:37:41;;;;;;;11.60;11.30;;;9.90;99.90;;;;;;5027588;28;20529;-71
2023/11/05 03:40:08;;;;;;;11.27;10.97;;;9.90;99.90;;;;;;5027723;28;20460;-72
2023/11/05 03:42:34;;;;;;;10.53;10.33;;;9.90;99.90;;;;;;5025683;28;20506;-71
2023/11/05 03:45:02;;;;;;;10.83;10.53;;;9.90;99.90;;;;;;5023672;28;20485;-71
2023/11/05 03:47:29;;;;;;;12.10;11.80;;;9.90;99.90;;;;;;5016809;28;20485;-71
2023/11/05 03:49:57;;;;;;;11.23;10.93;;;9.80;99.90;;;;;;5018242;28;20465;-72
2023/11/05 03:52:24;;;;;;;11.23;10.93;;;9.80;99.90;;;;;;5017050;28;20449;-72
2023/11/05 03:54:53;;;;;;;12.03;11.73;;;9.80;99.90;;;;;;5016884;28;20473;-72
2023/11/05 03:57:20;;;;;;;11.93;11.63;;;9.80;99.90;;;;;;5020251;28;20553;-71
2023/11/05 03:59:47;;;;;;;12.13;11.83;;;9.90;99.90;;;;;;5027199;28;20963;-72
2023/11/05 04:02:13;;;;;;;11.77;11.47;;;9.90;99.90;;;;;;5026959;28;21020;-71
2023/11/05 04:04:40;;;;;;;12.07;11.77;;;10.00;99.90;;;;;;5022713;28;20474;-70
2023/11/05 04:07:08;;;;;;;11.70;11.40;;;10.00;99.90;;;;;;5015098;28;20461;-73
2023/11/05 04:09:35;;;;;;;11.40;11.10;;;10.00;99.90;;;;;;5019883;27;20492;-71
2023/11/05 04:12:03;;;;;;;11.50;11.20;;;10.10;99.90;;;;;;5019413;28;20855;-71
2023/11/05 04:14:30;;;;;;;10.60;10.40;;;10.10;99.90;;;;;;5021844;28;20458;-73
2023/11/05 04:16:57;;;;;;;10.90;10.60;;;10.20;99.90;;;;;;5016573;28;20861;-72
2023/11/05 04:19:24;;;;;;;11.30;11.00;;;10.20;99.90;;;;;;5025724;28;20959;-73
2023/11/05 04:21:51;;;;;;;11.10;10.80;;;10.20;99.90;;;;;;5026904;28;20461;-72
2023/11/05 04:24:19;;;;;;;11.63;11.33;;;10.20;99.90;;;;;;5018247;28;20469;-72
2023/11/05 04:26:46;;;;;;;11.17;10.87;;;10.20;99.90;;;;;;5021566;28;20461;-72
2023/11/05 04:29:13;;;;;;;11.60;11.30;;;10.20;99.90;;;;;;5026446;28;20600;-71
2023/11/05 04:31:41;;;;;;;11.30;11.00;;;10.20;99.90;;;;;;5021548;28;21078;-70
2023/11/05 04:34:08;;;;;;;12.10;11.80;;;10.10;99.90;;;;;;5013621;28;20462;-72
2023/11/05 04:36:40;;;;;;;12.60;12.20;;;10.10;99.90;;;;;;5012214;28;20558;-71
2023/11/05 04:39:07;;;;;;;12.63;12.23;;;10.10;99.90;;;;;;5020216;28;20557;-71
2023/11/05 04:41:36;;;;;;;12.73;12.33;;;10.10;99.90;;;;;;5023570;28;20510;-72
2023/11/05 04:44:04;;;;;;;12.50;12.10;;;10.10;99.90;;;;;;5021970;28;20949;-71
2023/11/05 04:46:31;;;;;;;12.80;12.40;;;10.10;99.90;;;;;;5021042;28;21005;-72
2023/11/05 04:48:57;;;;;;;12.50;12.10;;;10.10;99.90;;;;;;5012320;28;20494;-72
2023/11/05 04:51:25;;;;;;;12.73;12.33;;;10.10;99.90;;;;;;5022488;28;20462;-72
2023/11/05 04:53:52;;;;;;;13.17;12.77;;;10.10;99.90;;;;;;5021741;28;20493;-72
2023/11/05 04:56:19;;;;;;;13.00;12.60;;;10.10;99.90;;;;;;5018908;28;21052;-71
2023/11/05 04:58:47;;;;;;;13.30;12.90;;;10.20;99.90;;;;;;5021927;28;20910;-72
2023/11/05 05:01:14;;;;;;;12.13;11.83;;;10.20;99.90;;;;;;5014104;28;20751;-72
2023/11/05 05:03:41;;;;;;;12.40;12.10;;;10.20;99.90;;;;;;5020213;28;20476;-72
2023/11/05 05:06:08;;;;;;;12.23;11.93;;;10.10;99.90;;;;;;5009831;28;20500;-72
2023/11/05 05:08:35;;;;;;;12.63;12.23;;;10.20;99.90;;;;;;5016078;28;20485;-71
2023/11/05 05:11:02;;;;;;;12.03;11.73;;;10.10;99.90;;;;;;5014340;28;20941;-73
2023/11/05 05:13:29;;;;;;;12.10;11.80;;;10.20;99.90;;;;;;5019307;28;20463;-73
2023/11/05 05:15:57;;;;;;;12.40;12.10;;;10.20;99.90;;;;;;5015208;28;20509;-73
2023/11/05 05:18:25;;;;;;;12.70;12.30;;;10.20;99.90;;;;;;5017839;28;21059;-72
2023/11/05 05:20:52;;;;;;;12.00;11.70;;;10.20;99.90;;;;;;5024813;28;20620;-72
2023/11/05 05:23:19;;;;;;;12.57;12.17;;;10.20;99.90;;;;;;5021131;28;20988;-71
2023/11/05 05:25:46;;;;;;;12.03;11.73;;;10.10;99.90;;;;;;5010878;28;20806;-71
2023/11/05 05:28:13;;;;;;;12.60;12.20;;;10.10;99.90;;;;;;5015307;28;20826;-73
2023/11/05 05:30:40;;;;;;;12.40;12.00;;;10.20;99.90;;;;;;5020084;28;20993;-73
2023/11/05 05:33:08;;;;;;;12.50;12.10;;;10.20;99.90;;;;;;5023874;28;20479;-70
2023/11/05 05:35:35;;;;;;;11.70;11.40;;;10.20;99.90;;;;;;5017955;28;20496;-72
2023/11/05 05:38:02;;;;;;;11.10;10.80;;;10.20;99.90;;;;;;5018164;28;20585;-71
2023/11/05 05:40:29;;;;;;;10.60;10.40;;;10.30;99.90;;;;;;5020527;28;20450;-70
2023/11/05 05:42:55;;;;;;;10.33;10.13;;;10.30;99.90;;;;;;5009271;28;20753;-69
2023/11/05 05:45:22;;;;;;;10.40;10.20;;;10.30;99.90;;;;;;5009501;28;20500;-72
2023/11/05 05:47:49;;;;;;;10.10;9.90;;;10.30;99.90;;;;;;5007184;28;21019;-71
2023/11/05 05:50:18;;;;;;;10.23;10.03;;;10.30;99.90;;;;;;5021245;28;20505;-72
2023/11/05 05:52:45;;;;;;;10.03;9.83;;;10.30;99.90;;;;;;5017184;28;20465;-72
2023/11/05 05:55:15;;;;;;;9.87;9.67;;;10.20;99.90;;;;;;5018350;28;20470;-72
2023/11/05 05:57:42;;;;;;;10.60;10.40;;;10.20;99.90;;;;;;5018340;28;20881;-72
2023/11/05 06:00:11;;;;;;;10.30;10.10;;;10.20;99.90;;;;;;5020583;28;20460;-71
2023/11/05 06:02:39;;;;;;;9.43;9.23;;;10.20;99.90;;;;;;5005660;28;20469;-72
2023/11/05 06:05:08;;;;;;;9.10;8.93;;;10.20;99.90;;;;;;5019390;28;20457;-72
2023/11/05 06:07:37;;;;;;;9.87;9.67;;;10.20;99.90;;;;;;5023669;28;20457;-72
2023/11/05 06:10:06;;;;;;;9.37;9.17;;;10.20;99.90;;;;;;5037111;28;20488;-71
2023/11/05 06:12:34;;;;;;;9.80;9.60;;;10.10;99.90;;;;;;5019451;28;20488;-72
2023/11/05 06:15:02;;;;;;;10.00;9.80;;;10.00;99.90;;;;;;5008869;28;20516;-71
2023/11/05 06:17:28;;;;;;;10.70;10.50;;;10.00;99.90;;;;;;5022657;28;20473;-70
2023/11/05 06:19:55;;;;;;;10.17;9.97;;;9.90;99.90;;;;;;5022458;28;20467;-73
2023/11/05 06:22:22;;;;;;;10.70;10.50;;;9.90;99.90;;;;;;5022802;28;20449;-71
2023/11/05 06:24:50;;;;;;;10.90;10.70;;;9.90;99.90;;;;;;5013922;28;20495;-73
2023/11/05 06:27:17;;;;;;;10.80;10.60;;;9.90;99.90;;;;;;5021750;28;20974;-71
2023/11/05 06:29:44;;;;;;;10.90;10.70;;;9.90;99.90;;;;;;5022662;28;21048;-70
2023/11/05 06:32:11;;;;;;;10.83;10.63;;;10.00;99.90;;;;;;5014413;28;20465;-71
2023/11/05 06:34:38;;;;;;;10.80;10.60;;;10.00;99.90;;;;;;5018475;28;20938;-71
2023/11/05 06:37:05;;;;;;;10.90;10.70;;;10.00;99.90;;;;;;5021708;28;20458;-71
2023/11/05 06:39:33;;;;;;;10.73;10.53;;;10.00;99.90;;;;;;5023347;28;20457;-71
2023/11/05 06:42:01;;;;;;;10.80;10.60;;;10.10;99.90;;;;;;5023703;28;20833;-69
2023/11/05 06:44:29;;;;;;;10.50;10.30;;;10.00;99.90;;;;;;5006286;28;20839;-70
2023/11/05 06:46:56;;;;;;;11.63;11.33;;;10.00;99.90;;;;;;5011277;28;20489;-71
2023/11/05 06:49:22;;;;;;;11.93;11.63;;;10.10;99.90;;;;;;5021477;28;20535;-71
2023/11/05 06:51:49;;;;;;;11.97;11.67;;;10.20;99.90;;;;;;5023331;28;20513;-71
2023/11/05 06:54:16;;;;;;;11.10;10.80;;;10.20;99.90;;;;;;5018410;28;20463;-71
2023/11/05 06:56:43;;;;;;;10.40;10.20;;;10.20;99.90;;;;;;5004764;28;20552;-72
2023/11/05 06:59:11;;;;;;;10.77;10.57;;;10.10;99.90;;;;;;5016945;28;20461;-72
2023/11/05 07:01:38;;;;;;;10.33;10.13;;;10.20;99.90;;;;;;5015607;28;20458;-71
2023/11/05 07:04:06;;;;;;;9.23;9.07;;;10.20;99.90;;;;;;5024142;28;20458;-71
2023/11/05 07:06:33;;;;;;;9.13;8.93;;;10.20;99.90;;;;;;5026659;28;20453;-70
2023/11/05 07:09:00;;;;;;;8.77;8.67;;;10.20;99.90;;;;;;5014890;28;20627;-72
2023/11/05 07:11:29;;;;;;;8.80;8.70;;;10.20;99.90;;;;;;5025077;28;21035;-72
2023/11/05 07:13:57;;;;;;;8.57;8.47;;;10.20;99.90;;;;;;5017944;28;20465;-71
2023/11/05 07:16:25;;;;;;;7.90;7.80;;;10.20;99.90;;;;;;5010984;28;20532;-71
2023/11/05 07:18:52;;;;;;;7.37;7.27;;;10.20;99.90;;;;;;5018726;28;20468;-70
2023/11/05 07:21:19;;;;;;;7.50;7.40;;;10.20;99.90;;;;;;5022830;28;20573;-72
2023/11/05 07:23:47;;;;;;;7.40;7.30;;;10.20;99.90;;;;;;5019166;28;20476;-72
2023/11/05 07:26:14;;;;;;;7.53;7.43;;;10.20;99.90;;;;;;5026890;28;20471;-71
2023/11/05 07:28:42;;;;;;;8.20;8.10;;;10.20;99.90;;;;;;5016321;28;20765;-72
2023/11/05 07:31:09;;;;;;;7.77;7.67;;;10.30;99.90;;;;;;5024918;28;20507;-72
2023/11/05 07:33:37;;;;;;;7.90;7.80;;;10.30;99.90;;;;;;5025035;28;20839;-69
2023/11/05 07:36:04;;;;;;;7.40;7.30;;;10.40;99.90;;;;;;5014500;28;20466;-69
2023/11/05 07:38:30;;;;;;;7.80;7.70;;;10.40;99.90;;;;;;5019436;28;20493;-70
2023/11/05 07:40:57;;;;;;;7.40;7.30;;;10.50;99.90;;;;;;5017882;28;20462;-70
2023/11/05 07:43:25;;;;;;;7.60;7.50;;;10.60;99.90;;;;;;5009909;28;20560;-71
2023/11/05 07:45:52;;;;;;;7.13;7.03;;;10.60;99.90;;;;;;5012340;28;20469;-70
2023/11/05 07:48:18;;;;;;;6.30;6.20;;;10.60;99.90;;;;;;5016748;28;20481;-71
2023/11/05 07:50:48;;;;;;;7.10;7.00;;;10.50;99.90;;;;;;5014990;28;20494;-71
2023/11/05 07:53:16;;;;;;;6.67;6.57;;;10.60;99.90;;;;;;5021149;28;20819;-70
2023/11/05 07:55:43;;;;;;;6.80;6.70;;;10.60;99.90;;;;;;5026229;28;20892;-69
2023/11/05 07:58:10;;;;;;;6.93;6.83;;;10.60;99.90;;;;;;5016291;28;20472;-71
2023/11/05 08:00:38;;;;;;;7.10;7.00;;;10.70;99.90;;;;;;5017643;28;20806;-71
2023/11/05 08:03:06;;;;;;;7.20;7.10;;;10.70;99.90;;;;;;5017066;28;20971;-71
2023/11/05 08:05:34;;;;;;;7.07;6.97;;;10.80;99.90;;;;;;5023524;28;20468;-71
2023/11/05 08:08:02;;;;;;;7.70;7.60;;;10.80;99.90;;;;;;5012253;28;20985;-70
2023/11/05 08:10:29;;;;;;;7.63;7.53;;;10.80;99.90;;;;;;5063027;27;20505;-71
2023/11/05 08:12:56;;;;;;;7.40;7.30;;;10.90;99.90;;;;;;5016910;28;20450;-71
2023/11/05 08:15:23;;;;;;;7.00;6.90;;;10.90;99.90;;;;;;5016567;28;20515;-71
2023/11/05 08:17:50;;;;;;;7.53;7.43;;;10.80;99.90;;;;;;5010344;28;21674;-71
2023/11/05 08:20:18;;;;;;;7.33;7.23;;;11.00;99.90;;;;;;5012635;28;20482;-72
2023/11/05 08:22:45;;;;;;;8.10;8.00;;;11.10;99.90;;;;;;5017775;28;20461;-72
2023/11/05 08:25:13;;;;;;;7.53;7.43;;;11.00;99.90;;;;;;5017581;28;20469;-71
2023/11/05 08:27:41;;;;;;;7.70;7.60;;;11.00;99.90;;;;;;5016871;28;21001;-72
2023/11/05 08:30:11;;;;;;;7.53;7.43;;;11.10;99.90;;;;;;5011037;28;21012;-73
2023/11/05 08:32:39;;;;;;;7.80;7.70;;;11.20;99.90;;;;;;5020719;28;20971;-71
2023/11/05 08:35:07;;;;;;;7.83;7.73;;;11.10;99.90;;;;;;5057973;27;20455;-71
2023/11/05 08:37:34;;;;;;;7.77;7.67;;;11.30;99.90;;;;;;5030954;27;20463;-72
2023/11/05 08:40:02;;;;;;;7.90;7.80;;;11.40;99.90;;;;;;5053568;27;20469;-73
2023/11/05 08:42:30;;;;;;;7.70;7.60;;;11.40;99.90;;;;;;5020527;27;20518;-72
2023/11/05 08:44:57;;;;;;;7.80;7.70;;;11.50;99.90;;;;;;5024069;28;20492;-71
2023/11/05 08:47:24;;;;;;;7.73;7.63;;;11.50;99.90;;;;;;5013401;28;20493;-73
2023/11/05 08:49:51;;;;;;;8.43;8.33;;;11.60;99.90;;;;;;5019854;28;20489;-72
2023/11/05 08:52:20;;;;;;;8.07;7.97;;;11.50;99.90;;;;;;5023951;27;20465;-73
2023/11/05 08:54:46;;;;;;;8.07;7.97;;;11.60;99.90;;;;;;5020508;27;20462;-71
2023/11/05 08:57:13;;;;;;;7.83;7.73;;;11.70;99.90;;;;;;5009688;28;21107;-72
2023/11/05 08:59:43;;;;;;;8.00;7.90;;;11.80;99.90;;;;;;5017460;28;20465;-73
2023/11/05 09:02:10;;;;;;;8.10;8.00;;;11.90;99.90;;;;;;5019839;28;20475;-71
2023/11/05 09:04:37;;;;;;;8.53;8.43;;;11.90;99.90;;;;;;5020316;28;20852;-71
2023/11/05 09:07:04;;;;;;;8.40;8.30;;;11.80;99.90;;;;;;5019080;28;20454;-72
2023/11/05 09:09:31;;;;;;;7.90;7.80;;;11.90;99.90;;;;;;5012031;27;20508;-72
2023/11/05 09:11:58;;;;;;;8.67;8.57;;;12.10;99.90;;;;;;5016995;28;20458;-73
2023/11/05 09:14:26;;;;;;;8.60;8.50;;;12.10;99.90;;;;;;5017452;28;20481;-71
2023/11/05 09:16:55;;;;;;;8.10;8.00;;;12.00;99.90;;;;;;5019505;28;20515;-71
2023/11/05 09:19:22;;;;;;;8.90;8.73;;;12.00;99.90;;;;;;5014065;28;20822;-72
2023/11/05 09:21:48;;;;;;;8.73;8.63;;;11.80;99.90;;;;;;5024976;28;20457;-69
2023/11/05 09:24:15;;;;;;;7.97;7.87;;;11.60;99.90;;;;;;5014253;28;20464;-72
2023/11/05 09:26:42;;;;;;;8.03;7.93;;;11.60;99.90;;;;;;5022349;28;20461;-73
2023/11/05 09:29:08;;;;;;;7.73;7.63;;;11.60;99.90;;;;;;5015816;28;20473;-71
2023/11/05 09:31:35;;;;;;;7.80;7.70;;;11.50;99.90;;;;;;5013596;28;20459;-72
2023/11/05 09:34:04;;;;;;;7.30;7.20;;;11.60;99.90;;;;;;5020680;28;20990;-71
2023/11/05 09:36:31;;;;;;;7.60;7.50;;;11.50;99.90;;;;;;5024328;28;20449;-71
2023/11/05 09:38:58;;;;;;;7.50;7.40;;;11.60;99.90;;;;;;5019868;28;20471;-72
2023/11/05 09:41:26;;;;;;;7.37;7.27;;;11.50;99.90;;;;;;5010849;28;21077;-70
2023/11/05 09:43:54;;;;;;;7.50;7.40;;;11.40;99.90;;;;;;5016110;28;20492;-71
2023/11/05 09:46:25;;;;;;;7.00;6.90;;;11.40;99.90;;;;;;5025021;28;20532;-70
2023/11/05 09:48:52;;;;;;;7.23;7.13;;;11.40;99.90;;;;;;5020920;28;20564;-71
2023/11/05 09:51:20;;;;;;;8.50;8.40;;;11.40;99.90;;;;;;5016772;28;20493;-71
2023/11/05 09:53:46;;;;;;;9.53;9.33;;;11.30;99.90;;;;;;5025522;28;20465;-73
2023/11/05 09:56:14;;;;;;;10.13;9.93;;;11.20;99.90;;;;;;5019270;28;20462;-72
2023/11/05 09:58:41;;;;;;;9.87;9.67;;;11.10;99.90;;;;;;5017084;28;21041;-73
2023/11/05 10:01:08;;;;;;;8.60;8.50;;;11.10;99.90;;;;;;5021603;28;22126;-73
2023/11/05 10:03:36;;;;;;;8.20;8.10;;;11.20;99.90;;;;;;5009989;28;20499;-72
2023/11/05 10:06:04;;;;;;;8.57;8.47;;;11.40;99.90;;;;;;5019509;28;20518;-70
2023/11/05 10:08:34;;;;;;;8.40;8.30;;;11.50;99.90;;;;;;5013116;28;21031;-71
2023/11/05 10:11:01;;;;;;;8.00;7.90;;;11.60;99.90;;;;;;5016285;28;20616;-72
2023/11/05 10:13:29;;;;;;;7.30;7.20;;;11.50;99.90;;;;;;5012518;28;20473;-71
2023/11/05 10:16:00;;;;;;;7.20;7.10;;;11.70;99.90;;;;;;5014462;28;21009;-72
2023/11/05 10:18:28;;;;;;;7.57;7.47;;;11.80;99.90;;;;;;5009725;28;20458;-71
2023/11/05 10:20:56;;;;;;;7.93;7.83;;;11.90;99.90;;;;;;5016335;28;20459;-72
2023/11/05 10:23:25;;;;;;;7.80;7.70;;;11.80;99.90;;;;;;5012371;28;20472;-71
2023/11/05 10:25:55;;;;;;;7.50;7.40;;;11.70;99.90;;;;;;5011431;28;21021;-71
2023/11/05 10:28:23;;;;;;;7.30;7.20;;;11.80;99.90;;;;;;5018712;28;20546;-72
2023/11/05 10:30:52;;;;;;;7.53;7.43;;;11.90;99.90;;;;;;5024631;28;20493;-73
2023/11/05 10:33:19;;;;;;;7.87;7.77;;;11.90;99.90;;;;;;5023195;28;20454;-72
2023/11/05 10:35:46;;;;;;;7.70;7.60;;;12.00;99.90;;;;;;5016929;28;20467;-71
2023/11/05 10:38:18;;;;;;;7.90;7.80;;;12.00;99.90;;;;;;5023224;28;20462;-71
2023/11/05 10:40:45;;;;;;;8.27;8.17;;;12.10;99.90;;;;;;5010521;28;20688;-70
2023/11/05 10:43:14;;;;;;;8.57;8.47;;;12.10;99.90;;;;;;5022862;28;20933;-72
2023/11/05 10:45:42;;;;;;;7.90;7.80;;;12.30;99.90;;;;;;5022116;28;20465;-72
2023/11/05 10:48:10;;;;;;;8.30;8.20;;;12.10;99.90;;;;;;5021104;28;20549;-72
2023/11/05 10:50:39;;;;;;;10.17;9.97;;;11.90;99.90;;;;;;5042153;27;20492;-71
2023/11/05 10:53:08;;;;;;;9.37;9.17;;;11.80;99.90;;;;;;5025514;28;20463;-71
2023/11/05 10:55:36;;;;;;;9.30;9.10;;;11.60;99.90;;;;;;5007439;28;20463;-71
2023/11/05 10:58:05;;;;;;;9.40;9.20;;;11.40;99.90;;;;;;5011754;28;21123;-72
2023/11/05 11:00:56;;;;;;;9.80;9.60;;;11.40;99.90;;;;;;5015436;28;20469;-73
2023/11/05 11:03:25;;;;;;;10.07;9.87;;;11.40;99.90;;;;;;5024344;28;20548;-71
2023/11/05 11:05:56;;;;;;;10.10;9.90;;;11.30;99.90;;;;;;5027778;28;20453;-72
2023/11/05 11:08:24;;;;;;;10.83;10.53;;;11.30;99.90;;;;;;5022797;28;21098;-70
2023/11/05 11:11:07;;;;;;;10.57;10.33;;;11.20;99.90;;;;;;5022842;27;20494;-72
2023/11/05 11:13:34;;;;;;;9.60;9.40;;;11.20;99.90;;;;;;5013898;28;20469;-72
2023/11/05 11:16:03;;;;;;;9.37;9.17;;;11.20;99.90;;;;;;5021416;28;20966;-70
2023/11/05 11:18:33;;;;;;;8.83;8.67;;;11.10;99.90;;;;;;5027187;28;20838;-70
2023/11/05 11:21:02;;;;;;;9.10;8.90;;;11.10;99.90;;;;;;5024406;28;20450;-73
2023/11/05 11:23:29;;;;;;;8.40;8.30;;;11.10;99.90;;;;;;5013340;28;20467;-72
2023/11/05 11:26:04;;;;;;;7.97;7.87;;;11.10;99.90;;;;;;5024281;28;20457;-72
2023/11/05 11:28:32;;;;;;;8.33;8.23;;;11.10;99.90;;;;;;5013820;28;20820;-71
2023/11/05 11:31:00;;;;;;;8.43;8.33;;;11.10;99.90;;;;;;5019526;28;21003;-72
2023/11/05 11:33:29;;;;;;;8.53;8.43;;;11.00;99.90;;;;;;5017271;28;20469;-74
2023/11/05 11:35:57;;;;;;;8.47;8.37;;;11.00;99.90;;;;;;5024058;28;20491;-72
2023/11/05 11:38:26;;;;;;;9.00;8.80;;;11.00;99.90;;;;;;5019719;28;22128;-71
2023/11/05 11:40:57;;;;;;;8.70;8.60;;;11.00;99.90;;;;;;5017642;28;20450;-71
2023/11/05 11:43:24;;;;;;;8.53;8.43;;;11.10;99.90;;;;;;5014877;28;21282;-72
2023/11/05 11:45:52;;;;;;;8.67;8.57;;;11.10;99.90;;;;;;5023254;28;20540;-73
2023/11/05 11:48:24;;;;;;;8.50;8.40;;;11.20;99.90;;;;;;5018214;28;20481;-70
2023/11/05 11:50:55;;;;;;;8.67;8.57;;;11.30;99.90;;;;;;5014252;28;20638;-71
2023/11/05 11:53:30;;;;;;;10.07;9.87;;;11.20;99.90;;;;;;5023944;28;20461;-72
2023/11/05 11:55:59;;;;;;;10.40;10.20;;;11.20;99.90;;;;;;5020632;28;20468;-72
2023/11/05 11:58:27;;;;;;;10.83;10.53;;;11.10;99.90;;;;;;5024129;28;20241;-71
2023/11/05 12:00:55;;;;;;;11.30;11.00;;;11.00;99.90;;;;;;5027287;28;20461;-72
2023/11/05 12:03:24;;;;;;;10.30;10.10;;;10.90;99.90;;;;;;5017366;28;20469;-72
2023/11/05 12:05:52;;;;;;;8.97;8.77;;;10.80;99.90;;;;;;5026648;28;20457;-72
2023/11/05 12:08:43;;;;;;;8.40;8.30;;;10.80;99.90;;;;;;5026737;28;20731;-73
2023/11/05 12:11:11;;;;;;;8.50;8.40;;;10.60;99.90;;;;;;5018964;28;20497;-73
2023/11/05 12:13:42;;;;;;;8.53;8.43;;;10.60;99.90;;;;;;5007377;28;20496;-72
2023/11/05 12:16:11;;;;;;;8.20;8.10;;;10.70;99.90;;;;;;5015646;28;20469;-73
2023/11/05 12:18:39;;;;;;;8.80;8.70;;;10.70;99.90;;;;;;5013775;28;20462;-74
2023/11/05 12:21:08;;;;;;;8.53;8.43;;;10.80;99.90;;;;;;5023863;28;20644;-71
2023/11/05 12:23:36;;;;;;;7.47;7.37;;;10.80;99.90;;;;;;5023645;28;20841;-73
2023/11/05 12:26:06;;;;;;;8.13;8.03;;;11.00;99.90;;;;;;5024091;28;20484;-72
2023/11/05 12:28:33;;;;;;;7.07;6.97;;;11.20;99.90;;;;;;5021046;28;20461;-72
2023/11/05 12:31:01;;;;;;;6.73;6.63;;;11.40;99.90;;;;;;5010586;28;20502;-72
2023/11/05 12:33:28;;;;;;;7.50;7.40;;;11.60;99.90;;;;;;5006605;28;20820;-72
2023/11/05 12:35:56;;;;;;;7.90;7.80;;;11.80;99.90;;;;;;5013326;28;20995;-72
2023/11/05 12:38:23;;;;;;;8.20;8.10;;;11.80;99.90;;;;;;5012051;28;20470;-73
2023/11/05 12:40:50;;;;;;;8.00;7.90;;;11.70;99.90;;;;;;5018814;28;20489;-71
2023/11/05 12:43:19;;;;;;;8.27;8.17;;;11.60;99.90;;;;;;5006780;28;20827;-73